sensor_id;sensor_type;location;lat;lon;timestamp;pressure;altitude;pressure_sealevel;temperature;humidity
9774;BME280;4926;42.670;23.316;2023-12-04T00:00:37;95015.50;;;0.55;90.33
9774;BME280;4926;42.670;23.316;2023-12-04T00:03:06;95024.72;;;0.58;90.02
9774;BME280;4926;42.670;23.316;2023-12-04T00:05:33;95018.34;;;0.54;89.08
9774;BME280;4926;42.670;23.316;2023-12-04T00:07:59;95019.84;;;0.61;88.77
9774;BME280;4926;42.670;23.316;2023-12-04T00:10:29;95028.31;;;0.63;88.19
9774;BME280;4926;42.670;23.316;2023-12-04T00:12:59;95030.03;;;0.51;87.00
9774;BME280;4926;42.670;23.316;2023-12-04T00:15:26;95023.66;;;0.41;86.62
9774;BME280;4926;42.670;23.316;2023-12-04T00:17:55;95042.56;;;0.43;87.10
9774;BME280;4926;42.670;23.316;2023-12-04T00:20:22;95044.56;;;0.47;87.37
9774;BME280;4926;42.670;23.316;2023-12-04T00:22:52;95054.63;;;0.50;87.69
9774;BME280;4926;42.670;23.316;2023-12-04T00:25:20;95053.81;;;0.50;86.96
9774;BME280;4926;42.670;23.316;2023-12-04T00:27:49;95042.50;;;0.56;85.66
9774;BME280;4926;42.670;23.316;2023-12-04T00:30:17;95038.25;;;0.55;83.96
9774;BME280;4926;42.670;23.316;2023-12-04T00:32:44;95045.13;;;0.56;83.63
9774;BME280;4926;42.670;23.316;2023-12-04T00:35:11;95049.97;;;0.52;83.22
9774;BME280;4926;42.670;23.316;2023-12-04T00:37:37;95063.06;;;0.52;83.96
9774;BME280;4926;42.670;23.316;2023-12-04T00:40:06;95065.47;;;0.54;84.51
9774;BME280;4926;42.670;23.316;2023-12-04T00:42:33;95063.22;;;0.57;83.93
9774;BME280;4926;42.670;23.316;2023-12-04T00:45:01;95059.03;;;0.50;83.14
9774;BME280;4926;42.670;23.316;2023-12-04T00:47:31;95070.75;;;0.47;82.91
9774;BME280;4926;42.670;23.316;2023-12-04T00:49:57;95086.50;;;0.41;83.47
9774;BME280;4926;42.670;23.316;2023-12-04T00:52:24;95081.91;;;0.36;83.97
9774;BME280;4926;42.670;23.316;2023-12-04T00:54:56;95088.34;;;0.40;83.18
9774;BME280;4926;42.670;23.316;2023-12-04T00:57:23;95082.50;;;0.38;82.94
9774;BME280;4926;42.670;23.316;2023-12-04T00:59:50;95077.66;;;0.35;82.90
9774;BME280;4926;42.670;23.316;2023-12-04T01:02:17;95087.31;;;0.41;83.88
9774;BME280;4926;42.670;23.316;2023-12-04T01:04:46;95100.56;;;0.46;84.85
9774;BME280;4926;42.670;23.316;2023-12-04T01:07:16;95085.72;;;0.40;82.01
9774;BME280;4926;42.670;23.316;2023-12-04T01:09:43;95090.75;;;0.35;81.52
9774;BME280;4926;42.670;23.316;2023-12-04T01:12:10;95087.91;;;0.43;81.56
9774;BME280;4926;42.670;23.316;2023-12-04T01:14:36;95085.91;;;0.39;81.66
9774;BME280;4926;42.670;23.316;2023-12-04T01:17:03;95088.59;;;0.26;82.39
9774;BME280;4926;42.670;23.316;2023-12-04T01:19:32;95096.84;;;0.29;82.48
9774;BME280;4926;42.670;23.316;2023-12-04T01:22:03;95093.75;;;0.39;82.42
9774;BME280;4926;42.670;23.316;2023-12-04T01:24:30;95080.03;;;0.43;82.00
9774;BME280;4926;42.670;23.316;2023-12-04T01:26:57;95096.00;;;0.35;81.32
9774;BME280;4926;42.670;23.316;2023-12-04T01:29:24;95084.94;;;0.33;81.77
9774;BME280;4926;42.670;23.316;2023-12-04T01:31:51;95093.38;;;0.35;82.11
9774;BME280;4926;42.670;23.316;2023-12-04T01:34:18;95094.28;;;0.23;81.64
9774;BME280;4926;42.670;23.316;2023-12-04T01:36:47;95104.69;;;0.29;82.41
9774;BME280;4926;42.670;23.316;2023-12-04T01:39:15;95098.31;;;0.19;82.25
9774;BME280;4926;42.670;23.316;2023-12-04T01:41:42;95103.59;;;0.12;82.82
9774;BME280;4926;42.670;23.316;2023-12-04T01:44:09;95104.75;;;0.16;83.55
9774;BME280;4926;42.670;23.316;2023-12-04T01:46:37;95102.69;;;0.25;82.77
9774;BME280;4926;42.670;23.316;2023-12-04T01:49:04;95083.81;;;0.16;82.52
9774;BME280;4926;42.670;23.316;2023-12-04T01:51:31;95097.94;;;0.15;81.86
9774;BME280;4926;42.670;23.316;2023-12-04T01:54:02;95110.25;;;0.08;81.93
9774;BME280;4926;42.670;23.316;2023-12-04T01:56:31;95113.69;;;0.02;82.22
9774;BME280;4926;42.670;23.316;2023-12-04T01:58:59;95106.03;;;0.00;82.74
9774;BME280;4926;42.670;23.316;2023-12-04T02:01:29;95106.03;;;0.00;83.33
9774;BME280;4926;42.670;23.316;2023-12-04T02:03:56;95110.97;;;-0.16;83.85
9774;BME280;4926;42.670;23.316;2023-12-04T02:06:26;95109.28;;;-0.04;84.89
9774;BME280;4926;42.670;23.316;2023-12-04T02:08:53;95116.09;;;0.03;84.46
9774;BME280;4926;42.670;23.316;2023-12-04T02:11:22;95115.47;;;0.08;85.25
9774;BME280;4926;42.670;23.316;2023-12-04T02:13:51;95120.97;;;0.00;84.94
9774;BME280;4926;42.670;23.316;2023-12-04T02:16:18;95133.84;;;-0.05;85.58
9774;BME280;4926;42.670;23.316;2023-12-04T02:18:46;95139.84;;;0.02;85.09
9774;BME280;4926;42.670;23.316;2023-12-04T02:21:13;95135.03;;;-0.01;85.29
9774;BME280;4926;42.670;23.316;2023-12-04T02:23:40;95132.22;;;0.00;84.60
9774;BME280;4926;42.670;23.316;2023-12-04T02:26:15;95125.22;;;-0.06;83.61
9774;BME280;4926;42.670;23.316;2023-12-04T02:28:47;95144.91;;;-0.03;83.87
9774;BME280;4926;42.670;23.316;2023-12-04T02:31:18;95144.69;;;-0.02;84.46
9774;BME280;4926;42.670;23.316;2023-12-04T02:33:46;95137.06;;;-0.03;84.13
9774;BME280;4926;42.670;23.316;2023-12-04T02:36:15;95133.25;;;-0.07;83.71
9774;BME280;4926;42.670;23.316;2023-12-04T02:38:42;95142.25;;;0.03;83.96
9774;BME280;4926;42.670;23.316;2023-12-04T02:41:11;95141.81;;;0.13;83.67
9774;BME280;4926;42.670;23.316;2023-12-04T02:43:38;95145.94;;;-0.04;83.29
9774;BME280;4926;42.670;23.316;2023-12-04T02:46:05;95142.09;;;-0.08;81.89
9774;BME280;4926;42.670;23.316;2023-12-04T02:48:32;95139.91;;;-0.11;81.99
9774;BME280;4926;42.670;23.316;2023-12-04T02:50:59;95142.75;;;-0.26;82.18
9774;BME280;4926;42.670;23.316;2023-12-04T02:53:27;95149.00;;;-0.33;82.36
9774;BME280;4926;42.670;23.316;2023-12-04T02:55:54;95153.66;;;-0.29;82.44
9774;BME280;4926;42.670;23.316;2023-12-04T02:58:22;95148.63;;;-0.37;82.60
9774;BME280;4926;42.670;23.316;2023-12-04T03:00:49;95142.81;;;-0.45;82.84
9774;BME280;4926;42.670;23.316;2023-12-04T03:03:16;95142.63;;;-0.50;82.86
9774;BME280;4926;42.670;23.316;2023-12-04T03:05:43;95160.53;;;-0.54;83.44
9774;BME280;4926;42.670;23.316;2023-12-04T03:08:12;95151.28;;;-0.56;84.49
9774;BME280;4926;42.670;23.316;2023-12-04T03:10:39;95146.44;;;-0.46;84.59
9774;BME280;4926;42.670;23.316;2023-12-04T03:13:11;95147.69;;;-0.62;84.43
9774;BME280;4926;42.670;23.316;2023-12-04T03:15:39;95138.63;;;-0.59;85.17
9774;BME280;4926;42.670;23.316;2023-12-04T03:18:06;95151.50;;;-0.51;85.37
9774;BME280;4926;42.670;23.316;2023-12-04T03:20:33;95152.91;;;-0.55;84.78
9774;BME280;4926;42.670;23.316;2023-12-04T03:23:00;95152.09;;;-0.49;84.54
9774;BME280;4926;42.670;23.316;2023-12-04T03:25:27;95166.94;;;-0.37;83.84
9774;BME280;4926;42.670;23.316;2023-12-04T03:27:53;95136.56;;;-0.38;82.17
9774;BME280;4926;42.670;23.316;2023-12-04T03:30:20;95141.78;;;-0.38;82.12
9774;BME280;4926;42.670;23.316;2023-12-04T03:32:49;95146.81;;;-0.36;81.91
9774;BME280;4926;42.670;23.316;2023-12-04T03:35:18;95148.84;;;-0.38;82.35
9774;BME280;4926;42.670;23.316;2023-12-04T03:37:45;95149.28;;;-0.54;82.18
9774;BME280;4926;42.670;23.316;2023-12-04T03:40:12;95156.75;;;-0.58;82.92
9774;BME280;4926;42.670;23.316;2023-12-04T03:42:43;95161.56;;;-0.55;83.78
9774;BME280;4926;42.670;23.316;2023-12-04T03:45:10;95158.13;;;-0.62;83.09
9774;BME280;4926;42.670;23.316;2023-12-04T03:47:39;95163.56;;;-0.70;83.72
9774;BME280;4926;42.670;23.316;2023-12-04T03:50:07;95171.78;;;-0.66;84.16
9774;BME280;4926;42.670;23.316;2023-12-04T03:52:34;95183.50;;;-0.75;83.68
9774;BME280;4926;42.670;23.316;2023-12-04T03:55:04;95178.25;;;-0.82;83.88
9774;BME280;4926;42.670;23.316;2023-12-04T03:57:31;95185.09;;;-0.74;84.13
9774;BME280;4926;42.670;23.316;2023-12-04T03:59:58;95173.84;;;-0.81;84.22
9774;BME280;4926;42.670;23.316;2023-12-04T04:02:25;95180.28;;;-0.77;84.86
9774;BME280;4926;42.670;23.316;2023-12-04T04:04:54;95189.50;;;-0.81;84.95
9774;BME280;4926;42.670;23.316;2023-12-04T04:07:23;95178.25;;;-0.82;84.51
9774;BME280;4926;42.670;23.316;2023-12-04T04:09:49;95181.25;;;-0.78;84.43
9774;BME280;4926;42.670;23.316;2023-12-04T04:12:16;95181.47;;;-0.80;84.52
9774;BME280;4926;42.670;23.316;2023-12-04T04:14:43;95176.25;;;-0.93;83.73
9774;BME280;4926;42.670;23.316;2023-12-04T04:17:10;95178.25;;;-0.88;83.88
9774;BME280;4926;42.670;23.316;2023-12-04T04:19:37;95193.53;;;-0.85;84.28
9774;BME280;4926;42.670;23.316;2023-12-04T04:22:07;95191.50;;;-0.83;84.20
9774;BME280;4926;42.670;23.316;2023-12-04T04:24:35;95187.28;;;-0.91;83.97
9774;BME280;4926;42.670;23.316;2023-12-04T04:27:11;95192.13;;;-0.88;84.31
9774;BME280;4926;42.670;23.316;2023-12-04T04:29:40;95195.13;;;-0.97;83.99
9774;BME280;4926;42.670;23.316;2023-12-04T04:32:07;95195.53;;;-1.00;84.60
9774;BME280;4926;42.670;23.316;2023-12-04T04:34:34;95187.09;;;-1.02;84.85
9774;BME280;4926;42.670;23.316;2023-12-04T04:37:01;95203.16;;;-0.99;84.67
9774;BME280;4926;42.670;23.316;2023-12-04T04:39:28;95202.34;;;-0.99;84.52
9774;BME280;4926;42.670;23.316;2023-12-04T04:41:56;95214.03;;;-0.95;84.38
9774;BME280;4926;42.670;23.316;2023-12-04T04:44:23;95200.75;;;-1.00;84.36
9774;BME280;4926;42.670;23.316;2023-12-04T04:46:50;95207.00;;;-0.95;84.22
9774;BME280;4926;42.670;23.316;2023-12-04T04:49:16;95213.22;;;-0.96;84.89
9774;BME280;4926;42.670;23.316;2023-12-04T04:51:43;95209.59;;;-1.08;83.65
9774;BME280;4926;42.670;23.316;2023-12-04T04:54:10;95220.84;;;-1.14;83.97
9774;BME280;4926;42.670;23.316;2023-12-04T04:56:37;95204.34;;;-1.08;83.20
9774;BME280;4926;42.670;23.316;2023-12-04T04:59:06;95213.63;;;-0.99;81.95
9774;BME280;4926;42.670;23.316;2023-12-04T05:01:35;95217.25;;;-1.00;82.28
9774;BME280;4926;42.670;23.316;2023-12-04T05:04:05;95210.19;;;-0.99;82.23
9774;BME280;4926;42.670;23.316;2023-12-04T05:06:34;95222.06;;;-1.03;82.01
9774;BME280;4926;42.670;23.316;2023-12-04T05:09:00;95210.19;;;-1.13;82.25
9774;BME280;4926;42.670;23.316;2023-12-04T05:11:28;95224.47;;;-1.08;82.73
9774;BME280;4926;42.670;23.316;2023-12-04T05:13:54;95209.59;;;-1.15;82.46
9774;BME280;4926;42.670;23.316;2023-12-04T05:16:29;95223.47;;;-1.07;81.97
9774;BME280;4926;42.670;23.316;2023-12-04T05:18:58;95227.25;;;-1.10;82.73
9774;BME280;4926;42.670;23.316;2023-12-04T05:21:25;95232.88;;;-1.06;83.13
9774;BME280;4926;42.670;23.316;2023-12-04T05:23:51;95232.06;;;-1.14;83.54
9774;BME280;4926;42.670;23.316;2023-12-04T05:26:18;95236.50;;;-1.14;83.80
9774;BME280;4926;42.670;23.316;2023-12-04T05:28:45;95231.69;;;-1.10;84.40
9774;BME280;4926;42.670;23.316;2023-12-04T05:31:13;95240.16;;;-0.95;90.20
9774;BME280;4926;42.670;23.316;2023-12-04T05:33:41;95272.16;;;-0.41;100.00
9774;BME280;4926;42.670;23.316;2023-12-04T05:36:09;95252.63;;;-0.45;90.24
9774;BME280;4926;42.670;23.316;2023-12-04T05:38:39;95237.97;;;-0.53;85.56
9774;BME280;4926;42.670;23.316;2023-12-04T05:41:06;95247.41;;;-0.52;83.96
9774;BME280;4926;42.670;23.316;2023-12-04T05:43:32;95240.16;;;-0.63;83.31
9774;BME280;4926;42.670;23.316;2023-12-04T05:46:02;95239.19;;;-0.68;82.88
9774;BME280;4926;42.670;23.316;2023-12-04T05:48:29;95243.81;;;-0.70;83.23
9774;BME280;4926;42.670;23.316;2023-12-04T05:50:59;95244.19;;;-0.73;83.14
9774;BME280;4926;42.670;23.316;2023-12-04T05:53:25;95255.84;;;-0.82;83.83
9774;BME280;4926;42.670;23.316;2023-12-04T05:55:54;95246.59;;;-0.78;84.06
9774;BME280;4926;42.670;23.316;2023-12-04T05:58:21;95253.66;;;-0.66;84.28
9774;BME280;4926;42.670;23.316;2023-12-04T06:00:48;95259.88;;;-0.60;84.24
9774;BME280;4926;42.670;23.316;2023-12-04T06:03:21;95266.31;;;-0.69;84.18
9774;BME280;4926;42.670;23.316;2023-12-04T06:05:50;95263.50;;;-0.74;84.24
9774;BME280;4926;42.670;23.316;2023-12-04T06:08:19;95268.72;;;-0.74;84.25
9774;BME280;4926;42.670;23.316;2023-12-04T06:10:46;95250.59;;;-0.89;84.52
9774;BME280;4926;42.670;23.316;2023-12-04T06:13:13;95250.19;;;-0.92;84.61
9774;BME280;4926;42.670;23.316;2023-12-04T06:15:40;95264.28;;;-0.93;84.78
9774;BME280;4926;42.670;23.316;2023-12-04T06:18:09;95266.28;;;-1.08;85.07
9774;BME280;4926;42.670;23.316;2023-12-04T06:20:36;95271.28;;;-1.00;85.53
9774;BME280;4926;42.670;23.316;2023-12-04T06:23:06;95272.53;;;-0.96;85.52
9774;BME280;4926;42.670;23.316;2023-12-04T06:25:38;95277.53;;;-0.88;85.38
9774;BME280;4926;42.670;23.316;2023-12-04T06:28:09;95272.72;;;-0.78;85.95
9774;BME280;4926;42.670;23.316;2023-12-04T06:30:38;95274.72;;;-0.80;85.53
9774;BME280;4926;42.670;23.316;2023-12-04T06:33:08;95277.56;;;-0.62;85.50
9774;BME280;4926;42.670;23.316;2023-12-04T06:35:36;95278.78;;;-0.45;84.89
9774;BME280;4926;42.670;23.316;2023-12-04T06:38:06;95273.75;;;-0.40;84.22
9774;BME280;4926;42.670;23.316;2023-12-04T06:40:34;95278.78;;;-0.32;83.45
9774;BME280;4926;42.670;23.316;2023-12-04T06:43:03;95278.75;;;-0.19;83.09
9774;BME280;4926;42.670;23.316;2023-12-04T06:45:31;95287.66;;;-0.27;82.22
9774;BME280;4926;42.670;23.316;2023-12-04T06:48:01;95282.19;;;-0.38;82.37
9774;BME280;4926;42.670;23.316;2023-12-04T06:50:30;95294.47;;;-0.19;82.80
9774;BME280;4926;42.670;23.316;2023-12-04T06:52:57;95289.25;;;-0.32;82.13
9774;BME280;4926;42.670;23.316;2023-12-04T06:55:24;95302.34;;;-0.39;82.32
9774;BME280;4926;42.670;23.316;2023-12-04T06:57:51;95294.09;;;-0.42;82.11
9774;BME280;4926;42.670;23.316;2023-12-04T07:00:20;95296.09;;;-0.31;82.50
9774;BME280;4926;42.670;23.316;2023-12-04T07:02:47;95300.50;;;-0.12;82.27
9774;BME280;4926;42.670;23.316;2023-12-04T07:05:14;95294.28;;;-0.11;80.90
9774;BME280;4926;42.670;23.316;2023-12-04T07:07:43;95301.91;;;-0.10;80.77
9774;BME280;4926;42.670;23.316;2023-12-04T07:10:16;95306.16;;;-0.02;80.93
9774;BME280;4926;42.670;23.316;2023-12-04T07:12:45;95301.31;;;-0.12;79.85
9774;BME280;4926;42.670;23.316;2023-12-04T07:15:12;95301.72;;;-0.08;80.52
9774;BME280;4926;42.670;23.316;2023-12-04T07:17:43;95293.22;;;0.10;80.70
9774;BME280;4926;42.670;23.316;2023-12-04T07:20:10;95289.78;;;0.22;80.78
9774;BME280;4926;42.670;23.316;2023-12-04T07:22:46;95291.81;;;0.20;79.12
9774;BME280;4926;42.670;23.316;2023-12-04T07:25:13;95291.38;;;0.36;79.39
9774;BME280;4926;42.670;23.316;2023-12-04T07:27:40;95297.38;;;0.43;78.79
9774;BME280;4926;42.670;23.316;2023-12-04T07:30:07;95299.22;;;0.36;78.74
9774;BME280;4926;42.670;23.316;2023-12-04T07:32:34;95294.34;;;0.46;79.02
9774;BME280;4926;42.670;23.316;2023-12-04T07:35:04;95298.72;;;0.65;78.00
9774;BME280;4926;42.670;23.316;2023-12-04T07:37:31;95286.56;;;0.84;76.49
9774;BME280;4926;42.670;23.316;2023-12-04T07:39:59;95289.56;;;0.87;75.04
9774;BME280;4926;42.670;23.316;2023-12-04T07:42:26;95274.97;;;0.60;73.25
9774;BME280;4926;42.670;23.316;2023-12-04T07:44:53;95281.44;;;0.51;74.24
9774;BME280;4926;42.670;23.316;2023-12-04T07:47:20;95285.19;;;0.68;74.46
9774;BME280;4926;42.670;23.316;2023-12-04T07:49:48;95284.38;;;0.74;74.32
9774;BME280;4926;42.670;23.316;2023-12-04T07:52:33;95287.03;;;0.68;74.51
9774;BME280;4926;42.670;23.316;2023-12-04T07:55:03;95285.88;;;1.33;73.75
9774;BME280;4926;42.670;23.316;2023-12-04T07:57:33;95270.66;;;2.15;70.04
9774;BME280;4926;42.670;23.316;2023-12-04T08:00:02;95261.16;;;2.86;65.59
9774;BME280;4926;42.670;23.316;2023-12-04T08:02:31;95254.25;;;3.03;63.07
9774;BME280;4926;42.670;23.316;2023-12-04T08:04:57;95262.47;;;3.25;62.23
9774;BME280;4926;42.670;23.316;2023-12-04T08:07:24;95254.63;;;3.18;60.75
9774;BME280;4926;42.670;23.316;2023-12-04T08:09:53;95259.13;;;2.70;61.98
9774;BME280;4926;42.670;23.316;2023-12-04T08:12:21;95261.75;;;2.52;61.46
9774;BME280;4926;42.670;23.316;2023-12-04T08:14:48;95261.84;;;2.46;61.96
9774;BME280;4926;42.670;23.316;2023-12-04T08:17:15;95254.03;;;2.21;61.18
9774;BME280;4926;42.670;23.316;2023-12-04T08:19:41;95258.84;;;2.24;61.26
9774;BME280;4926;42.670;23.316;2023-12-04T08:22:09;95259.53;;;1.95;60.99
9774;BME280;4926;42.670;23.316;2023-12-04T08:24:38;95255.81;;;1.60;60.50
9774;BME280;4926;42.670;23.316;2023-12-04T08:27:11;95264.19;;;1.44;61.21
9774;BME280;4926;42.670;23.316;2023-12-04T08:29:39;95259.94;;;1.18;61.76
9774;BME280;4926;42.670;23.316;2023-12-04T08:32:06;95272.63;;;1.21;62.11
9774;BME280;4926;42.670;23.316;2023-12-04T08:34:33;95262.94;;;1.22;61.09
9774;BME280;4926;42.670;23.316;2023-12-04T08:37:00;95275.63;;;1.25;61.59
9774;BME280;4926;42.670;23.316;2023-12-04T08:39:29;95272.00;;;1.26;61.42
9774;BME280;4926;42.670;23.316;2023-12-04T08:42:22;95268.63;;;1.19;61.69
9774;BME280;4926;42.670;23.316;2023-12-04T08:44:49;95271.56;;;1.29;61.86
9774;BME280;4926;42.670;23.316;2023-12-04T08:47:25;95271.63;;;1.22;61.35
9774;BME280;4926;42.670;23.316;2023-12-04T08:49:52;95269.22;;;1.21;61.08
9774;BME280;4926;42.670;23.316;2023-12-04T08:52:19;95261.47;;;1.32;61.20
9774;BME280;4926;42.670;23.316;2023-12-04T08:54:46;95267.53;;;1.01;61.58
9774;BME280;4926;42.670;23.316;2023-12-04T08:57:13;95270.78;;;0.90;61.70
9774;BME280;4926;42.670;23.316;2023-12-04T08:59:44;95272.75;;;1.01;62.69
9774;BME280;4926;42.670;23.316;2023-12-04T09:02:19;95264.22;;;1.12;62.91
9774;BME280;4926;42.670;23.316;2023-12-04T09:04:46;95275.22;;;1.28;63.71
9774;BME280;4926;42.670;23.316;2023-12-04T09:07:17;95271.44;;;1.48;63.63
9774;BME280;4926;42.670;23.316;2023-12-04T09:09:45;95256.19;;;1.63;62.80
9774;BME280;4926;42.670;23.316;2023-12-04T09:12:12;95244.56;;;1.77;62.40
9774;BME280;4926;42.670;23.316;2023-12-04T09:14:41;95248.28;;;1.88;61.93
9774;BME280;4926;42.670;23.316;2023-12-04T09:17:11;95236.50;;;1.97;60.72
9774;BME280;4926;42.670;23.316;2023-12-04T09:19:38;95244.94;;;1.81;59.96
9774;BME280;4926;42.670;23.316;2023-12-04T09:22:05;95241.94;;;1.77;61.04
9774;BME280;4926;42.670;23.316;2023-12-04T09:24:33;95241.16;;;1.95;61.01
9774;BME280;4926;42.670;23.316;2023-12-04T09:27:00;95238.34;;;2.14;61.72
9774;BME280;4926;42.670;23.316;2023-12-04T09:29:32;95234.94;;;2.32;61.61
9774;BME280;4926;42.670;23.316;2023-12-04T09:31:59;95224.25;;;2.45;61.32
9774;BME280;4926;42.670;23.316;2023-12-04T09:34:30;95226.97;;;2.57;61.14
9774;BME280;4926;42.670;23.316;2023-12-04T09:39:42;95216.09;;;2.53;59.70
9774;BME280;4926;42.670;23.316;2023-12-04T09:42:15;95195.31;;;2.34;59.18
9774;BME280;4926;42.670;23.316;2023-12-04T09:44:45;95230.03;;;2.17;59.48
9774;BME280;4926;42.670;23.316;2023-12-04T09:47:15;95233.00;;;2.21;60.04
9774;BME280;4926;42.670;23.316;2023-12-04T09:49:45;95226.91;;;2.27;59.99
9774;BME280;4926;42.670;23.316;2023-12-04T09:52:15;95212.16;;;2.08;60.21
9774;BME280;4926;42.670;23.316;2023-12-04T09:54:44;95220.31;;;2.00;60.40
9774;BME280;4926;42.670;23.316;2023-12-04T09:57:11;95212.13;;;1.90;59.26
9774;BME280;4926;42.670;23.316;2023-12-04T09:59:38;95210.69;;;1.94;59.76
9774;BME280;4926;42.670;23.316;2023-12-04T10:02:06;95209.72;;;2.06;59.85
9774;BME280;4926;42.670;23.316;2023-12-04T10:04:33;95210.41;;;2.20;59.22
9774;BME280;4926;42.670;23.316;2023-12-04T10:07:06;95187.78;;;2.19;57.83
9774;BME280;4926;42.670;23.316;2023-12-04T10:09:33;95194.78;;;2.43;58.27
9774;BME280;4926;42.670;23.316;2023-12-04T10:12:02;95177.25;;;2.55;57.11
9774;BME280;4926;42.670;23.316;2023-12-04T10:14:29;95191.25;;;2.67;57.08
9774;BME280;4926;42.670;23.316;2023-12-04T10:16:56;95200.44;;;2.76;56.38
9774;BME280;4926;42.670;23.316;2023-12-04T10:19:29;95208.94;;;2.60;57.16
9774;BME280;4926;42.670;23.316;2023-12-04T10:21:57;95194.63;;;2.56;57.43
9774;BME280;4926;42.670;23.316;2023-12-04T10:24:33;95190.34;;;2.73;57.34
9774;BME280;4926;42.670;23.316;2023-12-04T10:27:01;95188.88;;;2.77;57.39
9774;BME280;4926;42.670;23.316;2023-12-04T10:29:40;95186.25;;;2.77;57.16
9774;BME280;4926;42.670;23.316;2023-12-04T10:32:07;95183.50;;;2.72;57.43
9774;BME280;4926;42.670;23.316;2023-12-04T10:34:34;95174.56;;;2.73;57.16
9774;BME280;4926;42.670;23.316;2023-12-04T10:37:03;95169.59;;;2.83;57.03
9774;BME280;4926;42.670;23.316;2023-12-04T10:39:45;95179.38;;;3.06;57.52
9774;BME280;4926;42.670;23.316;2023-12-04T10:42:23;95162.34;;;3.08;56.32
9774;BME280;4926;42.670;23.316;2023-12-04T10:44:51;95155.31;;;2.91;56.78
9774;BME280;4926;42.670;23.316;2023-12-04T10:47:19;95153.78;;;3.13;56.17
9774;BME280;4926;42.670;23.316;2023-12-04T10:49:51;95161.22;;;3.27;54.66
9774;BME280;4926;42.670;23.316;2023-12-04T10:52:21;95147.84;;;3.29;54.06
9774;BME280;4926;42.670;23.316;2023-12-04T10:54:50;95152.66;;;3.32;54.58
9774;BME280;4926;42.670;23.316;2023-12-04T10:57:37;95151.84;;;3.31;55.39
9774;BME280;4926;42.670;23.316;2023-12-04T11:00:11;95167.66;;;3.31;56.21
9774;BME280;4926;42.670;23.316;2023-12-04T11:02:43;95169.81;;;3.34;56.60
9774;BME280;4926;42.670;23.316;2023-12-04T11:05:14;95166.28;;;3.52;57.56
9774;BME280;4926;42.670;23.316;2023-12-04T11:07:46;95160.94;;;3.59;56.70
9774;BME280;4926;42.670;23.316;2023-12-04T11:10:19;95149.38;;;3.60;56.30
9774;BME280;4926;42.670;23.316;2023-12-04T11:13:02;95151.75;;;3.73;56.87
9774;BME280;4926;42.670;23.316;2023-12-04T11:15:36;95144.31;;;3.47;56.11
9774;BME280;4926;42.670;23.316;2023-12-04T11:18:06;95145.69;;;3.37;57.08
9774;BME280;4926;42.670;23.316;2023-12-04T11:20:39;95153.13;;;3.52;57.93
9774;BME280;4926;42.670;23.316;2023-12-04T11:23:08;95156.34;;;3.54;57.75
9774;BME280;4926;42.670;23.316;2023-12-04T11:25:37;95147.63;;;3.54;58.76
9774;BME280;4926;42.670;23.316;2023-12-04T11:28:05;95148.56;;;3.59;59.28
9774;BME280;4926;42.670;23.316;2023-12-04T11:30:32;95143.63;;;3.63;59.10
9774;BME280;4926;42.670;23.316;2023-12-04T11:33:00;95137.47;;;3.69;58.84
9774;BME280;4926;42.670;23.316;2023-12-04T11:35:29;95138.59;;;3.73;58.96
9774;BME280;4926;42.670;23.316;2023-12-04T11:37:56;95128.97;;;3.78;59.24
9774;BME280;4926;42.670;23.316;2023-12-04T11:40:25;95129.78;;;3.79;59.32
9774;BME280;4926;42.670;23.316;2023-12-04T11:42:55;95131.59;;;3.90;59.77
9774;BME280;4926;42.670;23.316;2023-12-04T11:45:22;95128.97;;;3.78;59.23
9774;BME280;4926;42.670;23.316;2023-12-04T11:47:49;95122.34;;;3.76;59.19
9774;BME280;4926;42.670;23.316;2023-12-04T11:50:18;95113.31;;;3.72;59.34
9774;BME280;4926;42.670;23.316;2023-12-04T11:52:48;95111.25;;;3.74;59.96
9774;BME280;4926;42.670;23.316;2023-12-04T11:55:20;95120.28;;;3.66;59.27
9774;BME280;4926;42.670;23.316;2023-12-04T11:57:49;95114.34;;;3.59;58.35
9774;BME280;4926;42.670;23.316;2023-12-04T12:00:22;95111.47;;;3.72;59.47
9774;BME280;4926;42.670;23.316;2023-12-04T12:03:05;95107.22;;;3.83;59.26
9774;BME280;4926;42.670;23.316;2023-12-04T12:05:34;95111.56;;;3.89;58.94
9774;BME280;4926;42.670;23.316;2023-12-04T12:08:02;95106.28;;;3.89;58.19
9774;BME280;4926;42.670;23.316;2023-12-04T12:10:29;95098.88;;;3.74;58.45
9774;BME280;4926;42.670;23.316;2023-12-04T12:12:57;95091.19;;;3.73;58.09
9774;BME280;4926;42.670;23.316;2023-12-04T12:15:26;95079.41;;;3.75;57.80
9774;BME280;4926;42.670;23.316;2023-12-04T12:17:53;95088.91;;;3.88;58.65
9774;BME280;4926;42.670;23.316;2023-12-04T12:20:20;95085.16;;;3.72;58.10
9774;BME280;4926;42.670;23.316;2023-12-04T12:22:48;95080.00;;;3.66;57.67
9774;BME280;4926;42.670;23.316;2023-12-04T12:25:15;95082.97;;;3.81;58.13
9774;BME280;4926;42.670;23.316;2023-12-04T12:27:46;95076.97;;;3.97;57.54
9774;BME280;4926;42.670;23.316;2023-12-04T12:30:13;95075.97;;;3.86;57.23
9774;BME280;4926;42.670;23.316;2023-12-04T12:32:42;95069.91;;;3.86;57.80
9774;BME280;4926;42.670;23.316;2023-12-04T12:35:08;95067.28;;;3.63;57.92
9774;BME280;4926;42.670;23.316;2023-12-04T12:37:38;95069.56;;;3.82;57.49
9774;BME280;4926;42.670;23.316;2023-12-04T12:40:06;95070.38;;;3.83;58.18
9774;BME280;4926;42.670;23.316;2023-12-04T12:42:35;95072.63;;;3.91;57.71
9774;BME280;4926;42.670;23.316;2023-12-04T12:45:08;95064.16;;;3.89;58.25
9774;BME280;4926;42.670;23.316;2023-12-04T12:47:42;95050.78;;;3.79;56.94
9774;BME280;4926;42.670;23.316;2023-12-04T12:50:09;95050.09;;;3.83;57.28
9774;BME280;4926;42.670;23.316;2023-12-04T12:52:49;95063.34;;;4.00;58.00
9774;BME280;4926;42.670;23.316;2023-12-04T12:55:22;95056.19;;;4.12;57.41
9774;BME280;4926;42.670;23.316;2023-12-04T12:57:52;95057.91;;;4.18;58.05
9774;BME280;4926;42.670;23.316;2023-12-04T13:00:21;95048.69;;;4.32;57.89
9774;BME280;4926;42.670;23.316;2023-12-04T13:02:52;95058.34;;;4.15;58.48
9774;BME280;4926;42.670;23.316;2023-12-04T13:05:24;95047.38;;;4.18;58.64
9774;BME280;4926;42.670;23.316;2023-12-04T13:07:54;95053.56;;;4.12;58.61
9774;BME280;4926;42.670;23.316;2023-12-04T13:10:22;95047.03;;;4.14;58.75
9774;BME280;4926;42.670;23.316;2023-12-04T13:12:50;95053.31;;;4.25;59.39
9774;BME280;4926;42.670;23.316;2023-12-04T13:15:18;95054.63;;;4.39;58.83
9774;BME280;4926;42.670;23.316;2023-12-04T13:17:50;95052.63;;;4.46;58.80
9774;BME280;4926;42.670;23.316;2023-12-04T13:20:17;95060.31;;;4.47;58.59
9774;BME280;4926;42.670;23.316;2023-12-04T13:22:44;95054.47;;;4.45;58.23
9774;BME280;4926;42.670;23.316;2023-12-04T13:25:11;95061.97;;;4.53;58.76
9774;BME280;4926;42.670;23.316;2023-12-04T13:27:38;95064.03;;;4.51;58.03